Time;durP1;ratioP1;P1;durP2;ratioP2;P2;SDS_P1;SDS_P2;PMS_P1;PMS_P2;Temp;Humidity;BMP_temperature;BMP_pressure;BME280_temperature;BME280_humidity;BME280_pressure;Samples;Min_cycle;Max_cycle;Signal;HPM_P1;HPM_P2
2021/07/05 00:00:15;;;;;;;2.57;2.47;;;;;;;13.63;100.00;97665.56;4981723;28;20194;-73
2021/07/05 00:02:43;;;;;;;2.60;2.50;;;;;;;13.65;100.00;97663.56;4984199;28;20206;-76
2021/07/05 00:05:15;;;;;;;3.37;3.17;;;;;;;13.62;100.00;97663.91;4970748;28;20221;-75
2021/07/05 00:07:46;;;;;;;5.57;3.43;;;;;;;13.64;100.00;97664.56;4978265;28;20205;-75
2021/07/05 00:10:16;;;;;;;2.83;2.57;;;;;;;13.62;100.00;97657.78;4982886;28;20236;-75
2021/07/05 00:12:46;;;;;;;3.40;2.73;;;;;;;13.62;100.00;97655.94;4983103;28;20292;-75
2021/07/05 00:15:19;;;;;;;2.83;2.63;;;;;;;13.56;100.00;97657.53;4979982;28;20326;-75
2021/07/05 00:17:48;;;;;;;2.87;2.67;;;;;;;13.55;100.00;97650.56;4981618;28;20213;-75
2021/07/05 00:20:16;;;;;;;2.77;2.57;;;;;;;13.64;100.00;97645.94;4987192;28;20468;-75
2021/07/05 00:22:44;;;;;;;3.40;3.10;;;;;;;13.65;100.00;97657.38;4987585;28;20209;-75
2021/07/05 00:25:13;;;;;;;3.20;2.90;;;;;;;13.59;100.00;97646.50;4986771;28;20684;-75
2021/07/05 00:27:41;;;;;;;2.53;2.43;;;;;;;13.63;100.00;97657.56;4986578;28;20205;-75
2021/07/05 00:30:14;;;;;;;3.20;3.00;;;;;;;13.62;100.00;97655.13;4986685;28;20315;-76
2021/07/05 00:32:42;;;;;;;6.50;2.43;;;;;;;13.71;100.00;97662.78;4988064;28;20209;-76
2021/07/05 00:35:12;;;;;;;3.67;3.37;;;;;;;13.64;100.00;97663.72;4984881;28;20458;-74
2021/07/05 00:37:40;;;;;;;2.90;2.80;;;;;;;13.63;100.00;97662.09;4988851;28;20202;-75
2021/07/05 00:40:09;;;;;;;5.37;2.93;;;;;;;13.72;100.00;97660.94;4982591;28;20304;-75
2021/07/05 00:42:38;;;;;;;2.90;2.70;;;;;;;13.76;100.00;97659.53;4984825;28;20308;-76
2021/07/05 00:45:09;;;;;;;2.97;2.77;;;;;;;13.68;100.00;97659.66;4984664;28;20325;-75
2021/07/05 00:47:39;;;;;;;4.20;2.90;;;;;;;13.70;100.00;97653.16;4988069;28;20208;-75
2021/07/05 00:50:08;;;;;;;2.83;2.63;;;;;;;13.73;100.00;97655.44;4985284;28;20229;-76
2021/07/05 00:52:38;;;;;;;4.53;2.97;;;;;;;13.70;100.00;97649.66;4988498;28;20221;-76
2021/07/05 00:55:09;;;;;;;6.73;2.57;;;;;;;13.71;100.00;97651.28;4986748;28;20767;-76
2021/07/05 00:57:37;;;;;;;3.40;3.20;;;;;;;13.65;100.00;97652.06;4988996;28;20212;-75
2021/07/05 01:00:07;;;;;;;5.60;3.00;;;;;;;13.57;100.00;97651.19;4984486;28;20229;-76
2021/07/05 01:02:35;;;;;;;4.07;2.70;;;;;;;13.59;100.00;97650.97;4988030;28;20205;-75
2021/07/05 01:05:05;;;;;;;4.07;3.10;;;;;;;13.50;100.00;97658.31;4984339;28;20225;-76
2021/07/05 01:07:33;;;;;;;3.30;3.00;;;;;;;13.44;100.00;97653.72;4986288;28;20201;-75
2021/07/05 01:10:02;;;;;;;3.13;2.90;;;;;;;13.48;100.00;97647.03;4983842;28;20325;-75
2021/07/05 01:12:30;;;;;;;3.60;3.30;;;;;;;13.40;100.00;97645.28;4987047;28;20700;-76
2021/07/05 01:14:58;;;;;;;4.50;3.53;;;;;;;13.27;100.00;97651.28;4984233;28;20312;-75
2021/07/05 01:17:26;;;;;;;3.37;3.17;;;;;;;13.23;100.00;97646.53;4984423;28;20709;-75
2021/07/05 01:19:54;;;;;;;3.93;3.57;;;;;;;13.17;100.00;97648.94;4989050;28;20555;-75
2021/07/05 01:22:23;;;;;;;3.27;2.97;;;;;;;13.15;100.00;97650.16;4985085;28;20232;-75
2021/07/05 01:24:51;;;;;;;6.07;3.17;;;;;;;13.07;100.00;97661.72;4984755;28;20554;-77
2021/07/05 01:27:21;;;;;;;3.07;2.87;;;;;;;13.03;100.00;97663.94;4986017;28;20273;-75
2021/07/05 01:29:49;;;;;;;3.77;3.47;;;;;;;13.02;100.00;97658.81;4986611;28;20237;-76
2021/07/05 01:32:17;;;;;;;4.90;3.60;;;;;;;13.11;100.00;97657.69;4986342;28;20695;-76
2021/07/05 01:34:45;;;;;;;3.93;2.90;;;;;;;12.99;100.00;97657.34;4982896;28;20222;-75
2021/07/05 01:37:13;;;;;;;4.97;3.60;;;;;;;12.93;100.00;97657.28;4986565;28;20267;-76
2021/07/05 01:39:43;;;;;;;3.90;3.60;;;;;;;12.87;100.00;97664.97;4985193;28;20208;-75
2021/07/05 01:42:11;;;;;;;5.67;3.40;;;;;;;12.87;100.00;97656.19;4982982;28;20210;-77
2021/07/05 01:44:39;;;;;;;4.57;3.80;;;;;;;12.95;100.00;97661.38;4985416;28;20221;-75
2021/07/05 01:47:07;;;;;;;5.03;2.93;;;;;;;12.86;100.00;97655.34;4984561;28;20205;-75
2021/07/05 01:49:35;;;;;;;3.17;2.93;;;;;;;12.96;100.00;97651.59;4985700;28;20321;-76
2021/07/05 01:52:04;;;;;;;3.83;3.10;;;;;;;12.82;100.00;97650.59;4986314;28;20228;-75
2021/07/05 01:54:32;;;;;;;4.17;3.13;;;;;;;12.80;100.00;97653.44;4987774;28;20500;-76
2021/07/05 01:57:01;;;;;;;3.60;3.30;;;;;;;12.71;100.00;97655.41;4986750;28;20507;-75
2021/07/05 01:59:36;;;;;;;3.77;3.53;;;;;;;12.67;100.00;97648.78;4984060;28;20637;-76
2021/07/05 02:02:08;;;;;;;6.57;4.07;;;;;;;12.61;100.00;97654.84;4986324;28;20218;-75
2021/07/05 02:04:36;;;;;;;3.70;3.33;;;;;;;12.62;100.00;97653.03;4983421;28;20243;-75
2021/07/05 02:07:04;;;;;;;3.47;3.27;;;;;;;12.57;100.00;97645.59;4981763;28;20678;-75
2021/07/05 02:09:32;;;;;;;4.53;4.10;;;;;;;12.67;100.00;97650.63;4987269;28;20205;-74
2021/07/05 02:12:02;;;;;;;3.33;3.13;;;;;;;12.53;100.00;97658.47;4986611;28;20230;-76
2021/07/05 02:14:30;;;;;;;3.20;3.00;;;;;;;12.51;100.00;97649.00;4986166;28;20216;-75
2021/07/05 02:16:58;;;;;;;3.00;2.73;;;;;;;12.53;100.00;97647.81;4990568;28;20775;-74
2021/07/05 02:19:26;;;;;;;4.10;3.10;;;;;;;12.50;100.00;97642.88;4987682;28;20209;-75
2021/07/05 02:21:54;;;;;;;7.00;3.50;;;;;;;12.42;100.00;97630.50;4988489;28;20452;-74
2021/07/05 02:24:22;;;;;;;3.80;3.50;;;;;;;12.39;100.00;97628.22;4985986;28;20606;-73
2021/07/05 02:26:50;;;;;;;3.70;3.13;;;;;;;12.36;100.00;97639.22;4984553;28;20213;-75
2021/07/05 02:29:19;;;;;;;3.87;3.67;;;;;;;12.39;100.00;97635.34;4983481;28;20666;-75
2021/07/05 02:31:47;;;;;;;3.33;3.07;;;;;;;12.36;100.00;97641.88;4986320;28;20376;-76
2021/07/05 02:34:15;;;;;;;3.47;3.17;;;;;;;12.28;100.00;97639.28;4986187;28;20296;-76
2021/07/05 02:36:43;;;;;;;2.90;2.70;;;;;;;12.27;100.00;97627.84;4981114;28;20225;-75
2021/07/05 02:39:11;;;;;;;3.03;2.83;;;;;;;12.22;100.00;97626.75;4982583;28;20224;-75
2021/07/05 02:41:39;;;;;;;3.40;3.10;;;;;;;12.18;100.00;97618.34;4985049;28;20214;-75
2021/07/05 02:44:07;;;;;;;3.90;3.27;;;;;;;12.17;100.00;97627.31;4985453;28;20217;-75
2021/07/05 02:46:36;;;;;;;3.30;3.00;;;;;;;12.14;100.00;97628.50;4984072;28;20472;-74
2021/07/05 02:49:05;;;;;;;2.70;2.60;;;;;;;12.11;100.00;97634.16;4982120;28;20241;-73
2021/07/05 02:51:33;;;;;;;2.87;2.63;;;;;;;12.13;100.00;97634.00;4984835;28;20213;-75
2021/07/05 02:54:01;;;;;;;3.60;3.30;;;;;;;12.09;100.00;97635.34;4972701;28;20214;-74
2021/07/05 02:56:29;;;;;;;3.37;3.10;;;;;;;12.06;100.00;97646.34;4974769;28;20230;-75
2021/07/05 02:58:57;;;;;;;2.97;2.77;;;;;;;12.02;100.00;97649.38;4981133;28;20213;-75
2021/07/05 03:01:25;;;;;;;3.10;2.80;;;;;;;12.03;100.00;97642.25;4983209;28;20559;-74
2021/07/05 03:03:55;;;;;;;3.67;3.00;;;;;;;12.04;100.00;97648.34;4978996;28;20234;-73
2021/07/05 03:06:23;;;;;;;5.13;2.87;;;;;;;12.04;100.00;97657.16;4987137;28;20225;-74
2021/07/05 03:08:51;;;;;;;5.00;3.20;;;;;;;11.98;100.00;97656.00;4982039;28;20312;-74
2021/07/05 03:11:19;;;;;;;2.93;2.73;;;;;;;11.96;100.00;97647.41;4983881;28;20597;-74
2021/07/05 03:13:47;;;;;;;3.50;3.30;;;;;;;11.99;100.00;97646.22;4983640;28;20206;-75
2021/07/05 03:16:16;;;;;;;2.97;2.77;;;;;;;12.02;100.00;97659.97;4986005;28;20230;-75
2021/07/05 03:18:44;;;;;;;3.50;3.20;;;;;;;11.98;100.00;97660.50;4985696;28;20206;-74
2021/07/05 03:21:13;;;;;;;2.90;2.70;;;;;;;11.95;100.00;97655.56;4984316;28;20212;-74
2021/07/05 03:23:41;;;;;;;3.10;2.90;;;;;;;11.90;100.00;97647.28;4983349;28;20220;-74
2021/07/05 03:26:09;;;;;;;4.13;3.50;;;;;;;11.99;100.00;97651.53;4984609;28;20229;-74
2021/07/05 03:28:37;;;;;;;4.33;3.30;;;;;;;12.08;100.00;97652.28;4983645;28;20213;-74
2021/07/05 03:31:05;;;;;;;3.80;3.50;;;;;;;12.07;100.00;97648.81;4985294;28;20596;-74
2021/07/05 03:33:33;;;;;;;4.03;2.93;;;;;;;12.07;100.00;97646.16;4986065;28;20228;-75
2021/07/05 03:36:01;;;;;;;5.53;3.00;;;;;;;12.04;100.00;97651.00;4984136;28;20241;-75
2021/07/05 03:38:30;;;;;;;6.00;3.63;;;;;;;11.99;100.00;97648.88;4986400;28;20202;-75
2021/07/05 03:40:58;;;;;;;3.47;3.27;;;;;;;12.03;100.00;97652.84;4984521;28;20690;-74
2021/07/05 03:43:29;;;;;;;3.20;2.93;;;;;;;12.01;100.00;97657.53;4984434;28;20220;-75
2021/07/05 03:45:57;;;;;;;3.53;3.33;;;;;;;11.97;100.00;97659.69;4983736;28;20323;-74
2021/07/05 03:48:25;;;;;;;6.50;3.50;;;;;;;12.05;100.00;97661.47;4985505;28;20214;-74
2021/07/05 03:50:53;;;;;;;4.53;3.63;;;;;;;12.13;100.00;97657.91;4979564;28;20222;-75
2021/07/05 03:53:21;;;;;;;3.30;3.10;;;;;;;12.14;100.00;97655.06;4984172;28;20210;-75
2021/07/05 03:55:50;;;;;;;3.43;3.17;;;;;;;12.18;100.00;97660.84;4981716;28;20230;-71
2021/07/05 03:58:18;;;;;;;5.20;3.60;;;;;;;12.26;100.00;97659.91;4983647;28;20220;-68
2021/07/05 04:00:47;;;;;;;3.77;3.47;;;;;;;12.32;100.00;97661.84;4981632;28;20264;-71
2021/07/05 04:03:18;;;;;;;3.73;3.43;;;;;;;12.34;100.00;97659.00;4981032;28;20643;-70
2021/07/05 04:05:47;;;;;;;3.30;3.03;;;;;;;12.36;100.00;97665.78;4980660;28;20232;-71
2021/07/05 04:08:15;;;;;;;4.03;3.63;;;;;;;12.41;100.00;97668.72;4978409;28;20214;-70
2021/07/05 04:10:43;;;;;;;4.77;3.60;;;;;;;12.57;100.00;97674.84;4983755;28;20244;-70
2021/07/05 04:13:13;;;;;;;4.83;3.83;;;;;;;12.74;100.00;97678.97;4982546;28;20209;-69
2021/07/05 04:15:41;;;;;;;4.00;3.60;;;;;;;12.83;100.00;97678.84;4983755;28;20304;-71
2021/07/05 04:18:09;;;;;;;3.80;3.60;;;;;;;12.86;100.00;97673.97;4981300;28;20236;-71
2021/07/05 04:20:37;;;;;;;4.00;3.53;;;;;;;13.10;100.00;97674.66;4983446;28;20212;-70
2021/07/05 04:23:05;;;;;;;4.10;3.80;;;;;;;13.07;100.00;97676.84;4984289;28;20221;-71
2021/07/05 04:25:33;;;;;;;3.90;3.60;;;;;;;12.98;100.00;97661.00;4986364;28;20232;-71
2021/07/05 04:28:01;;;;;;;9.53;3.57;;;;;;;12.99;100.00;97660.00;4984623;28;20546;-70
2021/07/05 04:30:31;;;;;;;3.80;3.60;;;;;;;12.98;100.00;97663.66;4984688;28;20206;-70
2021/07/05 04:33:00;;;;;;;5.63;3.63;;;;;;;13.02;100.00;97654.31;4983311;28;20229;-71
2021/07/05 04:35:28;;;;;;;4.20;3.90;;;;;;;12.97;100.00;97656.72;4976931;28;20249;-71
2021/07/05 04:37:57;;;;;;;4.43;3.40;;;;;;;13.02;100.00;97637.53;4983763;28;20225;-71
2021/07/05 04:40:26;;;;;;;5.27;3.57;;;;;;;13.04;100.00;97646.16;4985079;28;20221;-70
2021/07/05 04:42:55;;;;;;;8.23;3.67;;;;;;;13.11;100.00;97647.03;4981451;28;20415;-71
2021/07/05 04:45:28;;;;;;;7.77;3.50;;;;;;;13.26;100.00;97646.97;4987091;28;20551;-70
2021/07/05 04:48:00;;;;;;;4.77;3.20;;;;;;;13.37;100.00;97658.13;4983236;28;20209;-69
2021/07/05 04:50:28;;;;;;;3.60;3.30;;;;;;;13.27;100.00;97658.47;4984002;28;20202;-71
2021/07/05 04:52:57;;;;;;;6.60;2.93;;;;;;;13.44;100.00;97657.22;4983780;28;20253;-71
2021/07/05 04:55:25;;;;;;;3.33;3.07;;;;;;;13.65;100.00;97662.72;4986067;28;20236;-69
2021/07/05 04:57:54;;;;;;;4.40;3.57;;;;;;;13.67;100.00;97661.53;4983692;28;20214;-71
2021/07/05 05:00:25;;;;;;;3.43;3.13;;;;;;;13.92;100.00;97657.59;4985246;28;20209;-70
2021/07/05 05:03:01;;;;;;;7.63;3.50;;;;;;;14.08;100.00;97648.50;4985383;28;20212;-70
2021/07/05 05:05:30;;;;;;;3.30;3.00;;;;;;;14.23;100.00;97638.53;4986647;28;20709;-70
2021/07/05 05:07:58;;;;;;;3.03;2.50;;;;;;;14.39;100.00;97637.41;4989535;28;20216;-71
2021/07/05 05:10:27;;;;;;;4.67;3.40;;;;;;;14.60;100.00;97636.47;4986886;28;20214;-71
2021/07/05 05:12:55;;;;;;;4.60;2.70;;;;;;;14.66;100.00;97634.03;4985751;28;20229;-71
2021/07/05 05:15:23;;;;;;;3.13;2.87;;;;;;;14.89;100.00;97639.91;4988208;28;20757;-71
2021/07/05 05:17:51;;;;;;;5.60;3.20;;;;;;;14.85;100.00;97641.31;4987757;28;20226;-72
2021/07/05 05:20:22;;;;;;;2.97;2.43;;;;;;;15.00;100.00;97643.00;4989884;28;20208;-71
2021/07/05 05:22:50;;;;;;;3.37;3.00;;;;;;;15.17;100.00;97646.97;4993203;28;20280;-71
2021/07/05 05:25:19;;;;;;;2.90;2.70;;;;;;;15.33;100.00;97647.59;4993392;28;20222;-71
2021/07/05 05:27:48;;;;;;;3.97;2.73;;;;;;;15.17;100.00;97646.97;4985265;28;20305;-71
2021/07/05 05:30:18;;;;;;;2.97;2.77;;;;;;;15.13;100.00;97652.88;4983366;28;20210;-71
2021/07/05 05:32:47;;;;;;;2.60;2.40;;;;;;;15.18;100.00;97650.44;4984198;28;20684;-71
2021/07/05 05:35:22;;;;;;;5.07;3.37;;;;;;;15.37;100.00;97648.81;4988432;28;20232;-69
2021/07/05 05:37:56;;;;;;;2.67;2.40;;;;;;;15.51;100.00;97657.66;4982244;28;20205;-72
2021/07/05 05:40:24;;;;;;;2.83;2.53;;;;;;;15.51;100.00;97659.50;4987061;28;20317;-71
2021/07/05 05:42:52;;;;;;;3.50;2.40;;;;;;;15.69;100.00;97657.06;4984454;28;20304;-71
2021/07/05 05:45:23;;;;;;;4.93;2.60;;;;;;;15.84;100.00;97653.34;4987183;28;20289;-71
2021/07/05 05:47:51;;;;;;;2.17;2.07;;;;;;;15.91;100.00;97663.06;4985563;28;20559;-70
2021/07/05 05:50:22;;;;;;;2.53;2.40;;;;;;;16.10;100.00;97659.75;4986866;28;20221;-71
2021/07/05 05:52:50;;;;;;;2.80;2.60;;;;;;;16.17;100.00;97665.91;4983234;28;20261;-71
2021/07/05 05:55:18;;;;;;;4.33;3.87;;;;;;;15.97;100.00;97666.75;4987824;28;20229;-71
2021/07/05 05:57:46;;;;;;;4.07;2.87;;;;;;;15.97;100.00;97644.53;4983269;28;20585;-71
2021/07/05 06:00:18;;;;;;;2.60;2.47;;;;;;;15.94;100.00;97644.97;4986374;28;20212;-71
2021/07/05 06:02:49;;;;;;;2.37;2.20;;;;;;;15.84;100.00;97650.69;4981930;28;20205;-71
2021/07/05 06:05:17;;;;;;;5.57;2.83;;;;;;;15.85;100.00;97652.31;4983533;28;20267;-71
2021/07/05 06:07:50;;;;;;;2.57;2.47;;;;;;;15.90;100.00;97640.03;4987204;28;20213;-71
2021/07/05 06:10:20;;;;;;;2.70;2.50;;;;;;;15.85;100.00;97657.66;4987487;28;20205;-71
2021/07/05 06:12:48;;;;;;;3.43;2.77;;;;;;;16.02;100.00;97656.25;4984890;28;20598;-70
2021/07/05 06:15:18;;;;;;;2.77;2.57;;;;;;;16.12;100.00;97658.53;4984385;28;20229;-71
2021/07/05 06:17:49;;;;;;;2.47;2.37;;;;;;;16.29;100.00;97660.75;4982931;28;20209;-71
2021/07/05 06:20:19;;;;;;;3.30;2.30;;;;;;;16.21;100.00;97656.44;4986690;28;20228;-72
2021/07/05 06:23:17;;;;;;;4.23;2.17;;;;;;;16.17;100.00;97658.72;4984940;28;20304;-70
2021/07/05 06:25:45;;;;;;;4.40;2.27;;;;;;;16.25;100.00;97659.53;4984167;28;20221;-71
2021/07/05 06:28:14;;;;;;;4.60;4.00;;;;;;;16.29;100.00;97661.56;4987156;28;20221;-70
2021/07/05 06:30:42;;;;;;;4.67;3.03;;;;;;;16.45;100.00;97659.47;4987088;28;20202;-71
2021/07/05 06:33:10;;;;;;;6.60;2.57;;;;;;;16.65;100.00;97670.09;4984628;28;20675;-69
2021/07/05 06:35:38;;;;;;;3.03;2.70;;;;;;;16.83;100.00;97664.06;4984451;28;20660;-70
2021/07/05 06:38:07;;;;;;;3.40;3.10;;;;;;;17.01;100.00;97662.56;4985996;28;20206;-70
2021/07/05 06:40:35;;;;;;;4.20;2.97;;;;;;;17.18;100.00;97662.88;4985987;28;20210;-70
2021/07/05 06:43:04;;;;;;;4.93;2.43;;;;;;;17.31;100.00;97654.78;4983769;28;20582;-70
2021/07/05 06:45:32;;;;;;;2.13;2.03;;;;;;;17.55;100.00;97651.53;4984770;28;20229;-69
2021/07/05 06:48:01;;;;;;;4.57;2.40;;;;;;;17.75;100.00;97651.38;4986351;28;20217;-69
2021/07/05 06:50:29;;;;;;;2.53;2.27;;;;;;;17.92;100.00;97648.97;4984400;28;20251;-70
2021/07/05 06:52:57;;;;;;;3.37;2.47;;;;;;;18.05;100.00;97654.22;4987066;28;20237;-70
2021/07/05 06:55:26;;;;;;;3.53;2.30;;;;;;;18.19;96.69;97649.56;4986023;28;20221;-70
2021/07/05 06:57:54;;;;;;;2.63;2.43;;;;;;;18.26;97.96;97648.69;4985349;28;20282;-70
2021/07/05 07:00:24;;;;;;;3.47;2.50;;;;;;;18.32;95.75;97653.97;4986155;28;20224;-70
2021/07/05 07:02:53;;;;;;;3.33;2.00;;;;;;;18.25;95.91;97657.75;4983955;28;20221;-69
2021/07/05 07:05:22;;;;;;;3.23;2.83;;;;;;;18.23;96.30;97656.13;4984283;28;20230;-73
2021/07/05 07:07:51;;;;;;;3.67;2.83;;;;;;;18.20;96.24;97661.94;4986809;28;20209;-73
2021/07/05 07:10:20;;;;;;;1.87;1.50;;;;;;;18.31;92.44;97654.19;4986164;28;20789;-73
2021/07/05 07:12:50;;;;;;;2.40;1.70;;;;;;;18.32;93.89;97661.19;4982262;28;20234;-73
2021/07/05 07:15:40;;;;;;;2.40;1.90;;;;;;;18.46;93.83;97662.72;4983158;28;20381;-74
2021/07/05 07:18:15;;;;;;;3.47;1.83;;;;;;;18.80;92.38;97660.47;4983944;28;20213;-73
2021/07/05 07:20:43;;;;;;;2.20;1.77;;;;;;;18.77;93.91;97657.41;4985386;28;20215;-74
2021/07/05 07:23:10;;;;;;;1.87;1.77;;;;;;;18.88;93.31;97648.56;4986624;28;20201;-73
2021/07/05 07:25:38;;;;;;;1.67;1.57;;;;;;;18.88;92.69;97653.94;4982077;28;20226;-74
2021/07/05 07:28:08;;;;;;;2.17;2.07;;;;;;;19.02;89.19;97659.19;4970949;28;20678;-73
2021/07/05 07:30:36;;;;;;;2.17;1.67;;;;;;;19.01;91.62;97646.81;4974257;28;20214;-74
2021/07/05 07:33:04;;;;;;;1.60;1.60;;;;;;;18.96;91.01;97647.44;4982337;28;20792;-75
2021/07/05 07:35:32;;;;;;;3.30;1.40;;;;;;;19.00;90.47;97654.03;4988301;28;20224;-74
2021/07/05 07:38:01;;;;;;;4.10;3.80;;;;;;;18.73;90.67;97651.66;4984840;28;20217;-73
2021/07/05 07:40:34;;;;;;;1.87;1.77;;;;;;;18.59;87.21;97656.38;4985943;28;20208;-75
2021/07/05 07:43:05;;;;;;;2.50;1.70;;;;;;;18.29;89.18;97656.28;4981695;28;20209;-75
2021/07/05 07:45:38;;;;;;;1.30;1.30;;;;;;;18.25;91.52;97652.41;4984329;28;20696;-75
2021/07/05 07:48:06;;;;;;;1.67;1.63;;;;;;;18.26;94.54;97654.03;4986102;28;20552;-75
2021/07/05 07:50:34;;;;;;;2.07;1.70;;;;;;;18.33;93.22;97662.84;4983375;28;20227;-76
2021/07/05 07:53:02;;;;;;;1.70;1.60;;;;;;;18.66;91.06;97654.44;4985446;28;20653;-73
2021/07/05 07:55:30;;;;;;;1.63;1.53;;;;;;;18.79;91.69;97655.31;4983789;28;20646;-74
2021/07/05 07:57:58;;;;;;;1.53;1.33;;;;;;;18.95;90.33;97648.50;4981174;28;20224;-74
2021/07/05 08:00:29;;;;;;;1.90;1.60;;;;;;;18.87;90.18;97648.81;4983082;28;20209;-74
2021/07/05 08:02:59;;;;;;;1.20;1.20;;;;;;;18.96;89.88;97650.13;4982657;28;20613;-75
2021/07/05 08:05:27;;;;;;;4.03;1.47;;;;;;;19.17;87.11;97648.03;4981708;28;20666;-74
2021/07/05 08:07:54;;;;;;;1.60;1.60;;;;;;;19.17;85.71;97653.41;4982871;28;20244;-72
2021/07/05 08:10:23;;;;;;;2.83;1.50;;;;;;;19.62;84.63;97654.81;4982655;28;20336;-73
2021/07/05 08:12:51;;;;;;;1.53;1.50;;;;;;;19.58;84.62;97643.72;4979808;28;20217;-73
2021/07/05 08:15:19;;;;;;;3.87;2.77;;;;;;;19.58;84.47;97641.03;4980659;28;20233;-74
2021/07/05 08:17:48;;;;;;;4.43;4.03;;;;;;;19.36;86.91;97654.97;4981040;28;20662;-72
2021/07/05 08:20:21;;;;;;;2.30;2.10;;;;;;;19.36;87.42;97652.28;4976506;28;20215;-74
2021/07/05 08:22:50;;;;;;;2.50;2.40;;;;;;;19.47;84.31;97647.16;4981734;28;20499;-74
2021/07/05 08:25:18;;;;;;;2.30;2.10;;;;;;;19.21;89.08;97651.91;4981388;28;20233;-73
2021/07/05 08:27:47;;;;;;;5.63;4.10;;;;;;;19.19;88.02;97643.25;4980243;28;20214;-74
2021/07/05 08:30:19;;;;;;;3.90;3.37;;;;;;;19.30;90.04;97645.16;4983247;28;20378;-74
2021/07/05 08:32:47;;;;;;;1.93;1.83;;;;;;;19.57;85.03;97631.31;4978113;28;20288;-73
2021/07/05 08:35:16;;;;;;;1.90;1.80;;;;;;;19.86;84.35;97631.44;4987382;28;20697;-72
2021/07/05 08:37:45;;;;;;;1.90;1.80;;;;;;;20.03;84.38;97636.19;4988167;28;20688;-73
2021/07/05 08:40:14;;;;;;;2.73;2.20;;;;;;;20.07;83.75;97632.75;4989241;28;20210;-74
2021/07/05 08:42:43;;;;;;;4.97;1.90;;;;;;;20.66;79.01;97641.84;4988324;28;20220;-75
2021/07/05 08:45:12;;;;;;;2.00;1.47;;;;;;;20.66;79.03;97648.03;4986353;28;20625;-73
2021/07/05 08:47:43;;;;;;;2.07;1.57;;;;;;;20.85;76.64;97649.75;4988336;28;20213;-75
2021/07/05 08:50:13;;;;;;;2.17;2.07;;;;;;;20.73;77.00;97647.06;4988257;28;20227;-71
2021/07/05 08:52:43;;;;;;;1.90;1.80;;;;;;;20.72;77.51;97645.44;4984238;28;20201;-74
2021/07/05 08:55:15;;;;;;;2.10;1.83;;;;;;;20.71;75.59;97649.19;4987115;28;20229;-73
2021/07/05 08:57:44;;;;;;;4.00;1.80;;;;;;;20.71;77.23;97655.41;4988647;28;20201;-73
2021/07/05 09:00:14;;;;;;;1.90;1.80;;;;;;;20.81;76.00;97652.09;4984010;28;20492;-73
2021/07/05 09:02:41;;;;;;;3.23;1.33;;;;;;;20.96;74.99;97647.03;4987095;28;20230;-74
2021/07/05 09:05:11;;;;;;;2.80;2.07;;;;;;;20.80;76.26;97655.84;4987895;28;20255;-71
2021/07/05 09:07:54;;;;;;;2.10;2.00;;;;;;;20.74;75.38;97654.09;4989090;28;20543;-74
2021/07/05 09:10:24;;;;;;;1.67;1.53;;;;;;;20.21;78.36;97648.69;4985634;28;20216;-74
2021/07/05 09:13:10;;;;;;;1.27;1.20;;;;;;;20.20;77.29;97633.59;4987461;28;20232;-73
2021/07/05 09:15:41;;;;;;;2.17;2.00;;;;;;;20.09;80.94;97643.31;4983048;28;20324;-74
2021/07/05 09:18:43;;;;;;;1.93;1.83;;;;;;;19.74;80.19;97646.75;4984304;28;20674;-75
2021/07/05 09:21:21;;;;;;;2.47;1.90;;;;;;;19.83;83.96;97642.66;4952293;28;20209;-71
2021/07/05 09:23:53;;;;;;;2.20;1.80;;;;;;;19.77;87.23;97647.13;4987192;28;20209;-74
2021/07/05 09:26:25;;;;;;;2.83;2.07;;;;;;;19.27;85.61;97644.78;4987386;28;20230;-73
2021/07/05 09:28:57;;;;;;;2.13;1.90;;;;;;;18.86;88.12;97644.50;4984274;28;20746;-71
2021/07/05 09:31:34;;;;;;;2.27;2.07;;;;;;;18.71;93.18;97644.88;4983339;28;20206;-73
2021/07/05 09:34:03;;;;;;;1.87;1.87;;;;;;;18.79;92.51;97648.09;4987212;28;20271;-72
2021/07/05 09:36:31;;;;;;;2.30;2.20;;;;;;;18.74;94.02;97642.53;4988576;28;20228;-73
2021/07/05 09:39:10;;;;;;;4.87;4.47;;;;;;;18.52;97.07;97644.88;4981999;28;20221;-73
2021/07/05 09:41:40;;;;;;;4.77;4.37;;;;;;;18.54;100.00;97645.47;4979019;28;20212;-74
2021/07/05 09:44:12;;;;;;;4.13;3.73;;;;;;;18.45;100.00;97647.66;4987326;28;20198;-74
2021/07/05 09:46:44;;;;;;;3.03;2.83;;;;;;;18.40;99.38;97649.34;4985556;28;20229;-73
2021/07/05 09:49:17;;;;;;;2.60;2.40;;;;;;;18.04;100.00;97654.47;4985535;28;20209;-72
2021/07/05 09:51:46;;;;;;;2.80;2.70;;;;;;;18.03;100.00;97647.47;4985895;28;20205;-73
2021/07/05 09:54:23;;;;;;;3.10;2.93;;;;;;;18.27;100.00;97653.81;4986349;28;20245;-73
2021/07/05 09:56:55;;;;;;;3.30;3.00;;;;;;;18.37;100.00;97655.97;4980175;28;20229;-73
2021/07/05 09:59:24;;;;;;;3.33;3.03;;;;;;;18.58;100.00;97651.22;4987187;28;20221;-73
2021/07/05 10:01:54;;;;;;;3.37;3.17;;;;;;;18.66;100.00;97654.44;4983046;28;20221;-73
2021/07/05 10:04:26;;;;;;;2.77;2.67;;;;;;;18.72;100.00;97659.94;4987684;28;20571;-73
2021/07/05 10:06:55;;;;;;;3.07;2.73;;;;;;;18.57;99.86;97661.16;4984442;28;20241;-73
2021/07/05 10:09:34;;;;;;;3.63;3.33;;;;;;;18.83;100.00;97659.16;4987244;28;20260;-73
2021/07/05 10:12:23;;;;;;;3.87;3.50;;;;;;;18.90;100.00;97664.47;4987115;28;20661;-73
2021/07/05 10:15:01;;;;;;;3.80;3.40;;;;;;;18.56;100.00;97664.03;4982599;28;20728;-73
2021/07/05 10:17:31;;;;;;;3.60;3.40;;;;;;;18.73;100.00;97662.38;4987258;28;20433;-73
2021/07/05 10:20:00;;;;;;;4.50;4.20;;;;;;;19.00;100.00;97658.59;4981724;28;20925;-73
2021/07/05 10:22:28;;;;;;;4.80;3.87;;;;;;;19.18;100.00;97660.41;4987124;28;20217;-73
2021/07/05 10:24:56;;;;;;;3.70;3.50;;;;;;;19.22;99.13;97657.03;4985530;28;20229;-74
2021/07/05 10:27:26;;;;;;;4.13;3.87;;;;;;;19.17;99.62;97656.91;4985729;28;20426;-73
2021/07/05 10:29:56;;;;;;;4.07;3.77;;;;;;;19.34;97.43;97654.38;4986077;28;20585;-73
2021/07/05 10:32:24;;;;;;;4.67;4.00;;;;;;;19.56;99.92;97653.03;4985317;28;20210;-73
2021/07/05 10:34:54;;;;;;;4.37;4.00;;;;;;;19.60;98.05;97646.16;4986689;28;20749;-73
2021/07/05 10:37:29;;;;;;;9.83;9.07;;;;;;;19.49;95.63;97645.91;4987019;28;20670;-73
2021/07/05 10:39:57;;;;;;;3.53;3.20;;;;;;;19.24;95.07;97644.19;4984339;28;20457;-73
2021/07/05 10:42:44;;;;;;;4.27;3.90;;;;;;;19.45;98.92;97644.72;4986085;28;20224;-73
2021/07/05 10:45:17;;;;;;;3.67;3.43;;;;;;;20.01;97.62;97643.66;4984099;28;20249;-75
2021/07/05 10:47:48;;;;;;;3.70;3.50;;;;;;;20.29;93.71;97647.53;4979385;28;20221;-74
2021/07/05 10:50:55;;;;;;;3.97;3.67;;;;;;;20.28;95.17;97635.13;4980057;28;20209;-75
2021/07/05 10:53:55;;;;;;;3.50;3.30;;;;;;;20.45;89.68;97640.56;4966142;28;20244;-73
2021/07/05 10:56:36;;;;;;;3.43;3.23;;;;;;;20.50;87.44;97633.44;4984074;28;20233;-75
2021/07/05 10:59:41;;;;;;;3.40;3.17;;;;;;;20.70;84.81;97632.22;4981427;28;20210;-73
2021/07/05 11:02:31;;;;;;;3.37;3.10;;;;;;;20.81;84.32;97626.00;4983033;28;20981;-73
2021/07/05 11:04:59;;;;;;;3.50;3.23;;;;;;;21.25;81.80;97632.72;4983057;28;20225;-74
2021/07/05 11:07:42;;;;;;;2.83;2.73;;;;;;;21.50;77.78;97635.03;4984313;28;20210;-76
2021/07/05 11:10:17;;;;;;;2.20;2.10;;;;;;;20.84;73.64;97634.66;4979977;28;20206;-70
2021/07/05 11:12:57;;;;;;;2.57;2.37;;;;;;;21.56;75.32;97635.94;4987005;28;20209;-75
2021/07/05 11:15:53;;;;;;;2.10;2.10;;;;;;;21.30;71.45;97629.31;4985959;28;20236;-75
2021/07/05 11:19:03;;;;;;;1.97;1.90;;;;;;;21.45;76.32;97626.88;4984021;28;20202;-72
2021/07/05 11:21:59;;;;;;;3.00;2.27;;;;;;;21.28;75.70;97615.28;4971816;28;20569;-72
2021/07/05 11:24:50;;;;;;;2.37;2.10;;;;;;;21.92;77.88;97614.16;4964468;28;20206;-73
2021/07/05 11:27:46;;;;;;;2.27;2.17;;;;;;;22.40;73.45;97611.84;4984743;28;20256;-74
2021/07/05 11:30:30;;;;;;;1.80;1.80;;;;;;;23.21;71.00;97610.34;4981335;28;20205;-74
2021/07/05 11:33:06;;;;;;;2.13;2.03;;;;;;;23.24;68.01;97609.88;4980599;28;20217;-74
2021/07/05 11:35:44;;;;;;;2.17;2.07;;;;;;;22.99;68.26;97618.50;4981895;28;20236;-73
2021/07/05 11:38:23;;;;;;;2.20;2.10;;;;;;;23.26;65.77;97618.53;4977087;28;20202;-73
2021/07/05 11:40:53;;;;;;;1.87;1.83;;;;;;;22.80;69.61;97608.03;4979021;28;20806;-74
2021/07/05 11:43:51;;;;;;;2.83;1.80;;;;;;;22.17;66.64;97599.38;4980748;28;20206;-74
2021/07/05 11:46:47;;;;;;;2.20;1.73;;;;;;;22.31;65.47;97592.56;4979728;28;20225;-74